William Oldendorff — D5NF7 — position and weather

sailwx.info

Track history (hours):
 
Tides and Currents Weather Stations Pressure Air Temp Water Temp Dewpoint Dewpoint Depression Visibility Wind Speed Wind Dir Waves Ship Positions

William Oldendorff

Last reported at 2018-Jun-16 04:04 UTC. Time now 2018-Jun-22 19:05 UTC.
Position N 31°28' E 032°20'.

Length 292 m; draft 18.3 m.

Type: Cargo ship. MMSI: 636092761.

Date/timePositionNaut miles runAvg speedWind from/ knotsBaromVisibWave heightAir tempDewpointWater temp
2018-Jun-16 04:04N 31°28' E 032°20'1 4.1
2018-Jun-16 03:53N 31°28' E 032°19'1 1.1
2018-Jun-16 02:52N 31°28' E 032°18'0 0.0
2018-Jun-16 02:28N 31°28' E 032°18'0 0.0
2018-Jun-16 01:58N 31°28' E 032°18'0 0.0
2018-Jun-16 01:23N 31°28' E 032°18'0 0.0
2018-Jun-16 01:00N 31°28' E 032°18'0 0.0
2018-Jun-16 00:30N 31°28' E 032°18'0 0.0
2018-Jun-16 00:00N 31°28' E 032°18'0 0.0
2018-Jun-15 23:21N 31°28' E 032°18'0 0.1
2018-Jun-15 23:00N 31°28' E 032°18'0 0.0
2018-Jun-15 21:36N 31°28' E 032°18'0 0.1
2018-Jun-15 21:30N 31°28' E 032°18'0 0.1
2018-Jun-15 21:00N 31°28' E 032°18'0 0.0
2018-Jun-15 20:29N 31°28' E 032°18'2 1.0
2018-Jun-15 18:04N 31°30' E 032°20'8 8.0
2018-Jun-15 17:06N 31°37' E 032°24'110.2
2018-Jun-15 17:00N 31°37' E 032°25'21 9.9
2018-Jun-15 14:53N 31°56' E 032°36'410.4
2018-Jun-15 14:29N 32°01' E 032°35'  
2018-Jun-12 11:23N 36°06' E 015°19'612.1
2018-Jun-12 10:56N 36°07' E 015°13'512.1
2018-Jun-12 10:30N 36°09' E 015°06'712.1
2018-Jun-12 09:57N 36°10' E 014°59'612.3
2018-Jun-12 09:30N 36°12' E 014°52'612.4
2018-Jun-12 09:00N 36°14' E 014°44'612.5
2018-Jun-12 08:30N 36°16' E 014°37'612.4
2018-Jun-12 08:00N 36°17' E 014°30'1912.2
2018-Jun-12 06:26N 36°22' E 014°07'512.2
2018-Jun-12 06:00N 36°23' E 014°00'712.3
2018-Jun-12 05:25N 36°25' E 013°52'512.3
2018-Jun-12 05:00N 36°27' E 013°46'712.2
2018-Jun-12 04:24N 36°29' E 013°37'512.1
2018-Jun-12 04:00N 36°30' E 013°31'612.0
2018-Jun-12 03:30N 36°32' E 013°24'612.2
2018-Jun-12 03:00N 36°34' E 013°17'612.2
2018-Jun-12 02:30N 36°35' E 013°09'612.1
2018-Jun-12 02:00N 36°37' E 013°02'612.2
2018-Jun-12 01:30N 36°38' E 012°55'612.1
2018-Jun-12 00:59N 36°40' E 012°47'612.2
2018-Jun-12 00:30N 36°41' E 012°40'612.2
2018-Jun-12 00:00N 36°44' E 012°33'712.6
2018-Jun-11 23:28N 36°47' E 012°26'712.5
2018-Jun-11 22:57N 36°50' E 012°19'62112.2
2018-Jun-09 20:01N 36°38' W 000°36'011.8
2018-Jun-09 20:00N 36°38' W 000°36'611.9
2018-Jun-09 19:30N 36°37' W 000°43'611.8
2018-Jun-09 19:00N 36°36' W 000°50'20812.6
2018-Jun-09 02:27N 36°10' W 005°07'3 7.8
2018-Jun-09 02:00N 36°08' W 005°11'6 5.5
2018-Jun-09 00:54N 36°02' W 005°12'512.0
2018-Jun-09 00:30N 36°00' W 005°17'612.4
2018-Jun-09 00:00N 35°58' W 005°24'  
Track history (hours):
 
Tides and Currents Weather Stations Pressure Air Temp Water Temp Dewpoint Dewpoint Depression Visibility Wind Speed Wind Dir Waves Ship Positions

William Oldendorff

Last reported at 2018-Jun-16 04:04 UTC. Time now 2018-Jun-22 19:05 UTC.
Position N 31°28' E 032°20'.

Length 292 m; draft 18.3 m.

Type: Cargo ship. MMSI: 636092761.

Date/timePositionNaut miles runAvg speedWind from/ knotsBaromVisibWave heightAir tempDewpointWater temp
2018-Jun-16 04:04N 31°28' E 032°20'1 4.1
2018-Jun-16 03:53N 31°28' E 032°19'1 1.1
2018-Jun-16 02:52N 31°28' E 032°18'0 0.0
2018-Jun-16 02:28N 31°28' E 032°18'0 0.0
2018-Jun-16 01:58N 31°28' E 032°18'0 0.0
2018-Jun-16 01:23N 31°28' E 032°18'0 0.0
2018-Jun-16 01:00N 31°28' E 032°18'0 0.0
2018-Jun-16 00:30N 31°28' E 032°18'0 0.0
2018-Jun-16 00:00N 31°28' E 032°18'0 0.0
2018-Jun-15 23:21N 31°28' E 032°18'0 0.1
2018-Jun-15 23:00N 31°28' E 032°18'0 0.0
2018-Jun-15 21:36N 31°28' E 032°18'0 0.1
2018-Jun-15 21:30N 31°28' E 032°18'0 0.1
2018-Jun-15 21:00N 31°28' E 032°18'0 0.0
2018-Jun-15 20:29N 31°28' E 032°18'2 1.0
2018-Jun-15 18:04N 31°30' E 032°20'8 8.0
2018-Jun-15 17:06N 31°37' E 032°24'110.2
2018-Jun-15 17:00N 31°37' E 032°25'21 9.9
2018-Jun-15 14:53N 31°56' E 032°36'410.4
2018-Jun-15 14:29N 32°01' E 032°35'  
2018-Jun-12 11:23N 36°06' E 015°19'612.1
2018-Jun-12 10:56N 36°07' E 015°13'512.1
2018-Jun-12 10:30N 36°09' E 015°06'712.1
2018-Jun-12 09:57N 36°10' E 014°59'612.3
2018-Jun-12 09:30N 36°12' E 014°52'612.4
2018-Jun-12 09:00N 36°14' E 014°44'612.5
2018-Jun-12 08:30N 36°16' E 014°37'612.4
2018-Jun-12 08:00N 36°17' E 014°30'1912.2
2018-Jun-12 06:26N 36°22' E 014°07'512.2
2018-Jun-12 06:00N 36°23' E 014°00'712.3
2018-Jun-12 05:25N 36°25' E 013°52'512.3
2018-Jun-12 05:00N 36°27' E 013°46'712.2
2018-Jun-12 04:24N 36°29' E 013°37'512.1
2018-Jun-12 04:00N 36°30' E 013°31'612.0
2018-Jun-12 03:30N 36°32' E 013°24'612.2
2018-Jun-12 03:00N 36°34' E 013°17'612.2
2018-Jun-12 02:30N 36°35' E 013°09'612.1
2018-Jun-12 02:00N 36°37' E 013°02'612.2
2018-Jun-12 01:30N 36°38' E 012°55'612.1
2018-Jun-12 00:59N 36°40' E 012°47'612.2
2018-Jun-12 00:30N 36°41' E 012°40'612.2
2018-Jun-12 00:00N 36°44' E 012°33'712.6
2018-Jun-11 23:28N 36°47' E 012°26'712.5
2018-Jun-11 22:57N 36°50' E 012°19'62112.2
2018-Jun-09 20:01N 36°38' W 000°36'011.8
2018-Jun-09 20:00N 36°38' W 000°36'611.9
2018-Jun-09 19:30N 36°37' W 000°43'611.8
2018-Jun-09 19:00N 36°36' W 000°50'20812.6
2018-Jun-09 02:27N 36°10' W 005°07'3 7.8
2018-Jun-09 02:00N 36°08' W 005°11'6 5.5
2018-Jun-09 00:54N 36°02' W 005°12'512.0
2018-Jun-09 00:30N 36°00' W 005°17'612.4
2018-Jun-09 00:00N 35°58' W 005°24'  

Dump ship's entire track history